Levasy, Missouri
Current Conditions -  °F | °C
As of 9:55 PM on Saturday 24 Jan 2015 (Local Time) from KGPH Reporting Station
Overcast Overcast  
Wind Chill: 54°   Ceiling: 8000
Heat Index: 54°   Visibility: 10mi
Dew Point: 30°   Wind: 14mph
Humidity: 41%   Direction: 260°W
Pressure: 29.69"   Gusts: 20mph
Location:  39.14°N, 94.13°W
Report Text: KGPH 250355Z AUTO 26012G17KT 10SM OVC080 12/M01 A2969 RMK AO2
Loading
Personal Weather Stations






























Interactive Weather Map New forecast layout! Learn more

10-Day Weather Forecast

Advertisements
Track Severe Weather on mobile